sensor_id;sensor_type;location;lat;lon;timestamp;P1;durP1;ratioP1;P2;durP2;ratioP2
24617;SDS011;12762;51.730;5.356;2023-07-20T00:02:05;9.33;;;5.17;;
24617;SDS011;12762;51.730;5.356;2023-07-20T00:04:33;7.57;;;4.70;;
24617;SDS011;12762;51.730;5.356;2023-07-20T00:07:00;9.47;;;5.07;;
24617;SDS011;12762;51.730;5.356;2023-07-20T00:09:27;7.80;;;5.63;;
24617;SDS011;12762;51.730;5.356;2023-07-20T00:11:54;9.93;;;5.93;;
24617;SDS011;12762;51.730;5.356;2023-07-20T00:14:21;10.40;;;5.70;;
24617;SDS011;12762;51.730;5.356;2023-07-20T00:16:49;8.87;;;4.93;;
24617;SDS011;12762;51.730;5.356;2023-07-20T00:19:23;10.03;;;5.83;;
24617;SDS011;12762;51.730;5.356;2023-07-20T00:21:50;9.47;;;5.13;;
24617;SDS011;12762;51.730;5.356;2023-07-20T00:24:17;11.10;;;6.00;;
24617;SDS011;12762;51.730;5.356;2023-07-20T00:26:44;7.47;;;4.73;;
24617;SDS011;12762;51.730;5.356;2023-07-20T00:29:11;10.40;;;5.17;;
24617;SDS011;12762;51.730;5.356;2023-07-20T00:31:38;9.40;;;6.03;;
24617;SDS011;12762;51.730;5.356;2023-07-20T00:34:05;7.37;;;4.07;;
24617;SDS011;12762;51.730;5.356;2023-07-20T00:36:32;6.50;;;3.03;;
24617;SDS011;12762;51.730;5.356;2023-07-20T00:38:59;8.33;;;6.17;;
24617;SDS011;12762;51.730;5.356;2023-07-20T00:41:26;9.27;;;4.20;;
24617;SDS011;12762;51.730;5.356;2023-07-20T00:43:55;9.77;;;5.47;;
24617;SDS011;12762;51.730;5.356;2023-07-20T00:46:23;10.87;;;5.83;;
24617;SDS011;12762;51.730;5.356;2023-07-20T00:48:52;11.87;;;7.13;;
24617;SDS011;12762;51.730;5.356;2023-07-20T00:51:20;7.67;;;4.47;;
24617;SDS011;12762;51.730;5.356;2023-07-20T00:53:49;9.23;;;6.33;;
24617;SDS011;12762;51.730;5.356;2023-07-20T00:56:16;12.13;;;7.13;;
24617;SDS011;12762;51.730;5.356;2023-07-20T00:58:51;13.13;;;8.00;;
24617;SDS011;12762;51.730;5.356;2023-07-20T01:01:24;12.37;;;7.77;;
24617;SDS011;12762;51.730;5.356;2023-07-20T01:03:51;11.53;;;7.83;;
24617;SDS011;12762;51.730;5.356;2023-07-20T01:09:22;11.03;;;6.60;;
24617;SDS011;12762;51.730;5.356;2023-07-20T01:12:08;14.10;;;9.60;;
24617;SDS011;12762;51.730;5.356;2023-07-20T01:14:51;13.00;;;7.73;;
24617;SDS011;12762;51.730;5.356;2023-07-20T01:17:19;14.67;;;8.40;;
24617;SDS011;12762;51.730;5.356;2023-07-20T01:19:45;11.53;;;6.80;;
24617;SDS011;12762;51.730;5.356;2023-07-20T01:33:25;9.07;;;5.83;;
24617;SDS011;12762;51.730;5.356;2023-07-20T01:35:56;11.47;;;5.90;;
24617;SDS011;12762;51.730;5.356;2023-07-20T01:38:25;7.93;;;5.43;;
24617;SDS011;12762;51.730;5.356;2023-07-20T01:40:53;9.50;;;5.60;;
24617;SDS011;12762;51.730;5.356;2023-07-20T01:43:20;7.80;;;5.17;;
24617;SDS011;12762;51.730;5.356;2023-07-20T01:45:47;8.17;;;4.83;;
24617;SDS011;12762;51.730;5.356;2023-07-20T01:48:13;10.13;;;4.93;;
24617;SDS011;12762;51.730;5.356;2023-07-20T01:50:40;6.77;;;3.67;;
24617;SDS011;12762;51.730;5.356;2023-07-20T01:53:08;5.67;;;3.10;;
24617;SDS011;12762;51.730;5.356;2023-07-20T01:55:34;10.50;;;5.67;;
24617;SDS011;12762;51.730;5.356;2023-07-20T01:58:01;6.80;;;4.57;;
24617;SDS011;12762;51.730;5.356;2023-07-20T02:00:29;9.90;;;5.87;;
24617;SDS011;12762;51.730;5.356;2023-07-20T02:02:56;7.73;;;4.93;;
24617;SDS011;12762;51.730;5.356;2023-07-20T02:05:23;8.63;;;4.83;;
24617;SDS011;12762;51.730;5.356;2023-07-20T02:07:50;8.67;;;5.23;;
24617;SDS011;12762;51.730;5.356;2023-07-20T02:10:17;6.97;;;4.10;;
24617;SDS011;12762;51.730;5.356;2023-07-20T02:12:44;6.50;;;4.60;;
24617;SDS011;12762;51.730;5.356;2023-07-20T02:15:11;7.97;;;4.93;;
24617;SDS011;12762;51.730;5.356;2023-07-20T02:17:39;6.83;;;3.93;;
24617;SDS011;12762;51.730;5.356;2023-07-20T02:20:07;8.30;;;4.77;;
24617;SDS011;12762;51.730;5.356;2023-07-20T02:22:36;8.23;;;5.70;;
24617;SDS011;12762;51.730;5.356;2023-07-20T02:25:04;5.50;;;3.87;;
24617;SDS011;12762;51.730;5.356;2023-07-20T02:27:32;7.83;;;4.93;;
24617;SDS011;12762;51.730;5.356;2023-07-20T02:30:02;8.43;;;5.73;;
24617;SDS011;12762;51.730;5.356;2023-07-20T02:32:30;6.97;;;5.07;;
24617;SDS011;12762;51.730;5.356;2023-07-20T02:34:58;11.33;;;6.07;;
24617;SDS011;12762;51.730;5.356;2023-07-20T02:37:25;7.70;;;5.27;;
24617;SDS011;12762;51.730;5.356;2023-07-20T02:39:52;7.40;;;4.87;;
24617;SDS011;12762;51.730;5.356;2023-07-20T02:42:18;8.30;;;5.77;;
24617;SDS011;12762;51.730;5.356;2023-07-20T02:44:45;7.87;;;5.00;;
24617;SDS011;12762;51.730;5.356;2023-07-20T02:47:12;8.73;;;6.03;;
24617;SDS011;12762;51.730;5.356;2023-07-20T02:49:39;7.63;;;4.50;;
24617;SDS011;12762;51.730;5.356;2023-07-20T02:52:06;6.90;;;5.13;;
24617;SDS011;12762;51.730;5.356;2023-07-20T02:54:33;13.13;;;7.30;;
24617;SDS011;12762;51.730;5.356;2023-07-20T02:57:00;9.40;;;7.20;;
24617;SDS011;12762;51.730;5.356;2023-07-20T02:59:27;10.20;;;6.67;;
24617;SDS011;12762;51.730;5.356;2023-07-20T03:01:55;7.67;;;5.87;;
24617;SDS011;12762;51.730;5.356;2023-07-20T03:04:25;9.70;;;6.40;;
24617;SDS011;12762;51.730;5.356;2023-07-20T03:06:53;8.27;;;4.97;;
24617;SDS011;12762;51.730;5.356;2023-07-20T03:09:20;6.20;;;4.30;;
24617;SDS011;12762;51.730;5.356;2023-07-20T03:11:48;8.97;;;4.57;;
24617;SDS011;12762;51.730;5.356;2023-07-20T03:14:16;6.33;;;4.73;;
24617;SDS011;12762;51.730;5.356;2023-07-20T03:16:43;7.87;;;4.50;;
24617;SDS011;12762;51.730;5.356;2023-07-20T03:19:12;6.47;;;4.70;;
24617;SDS011;12762;51.730;5.356;2023-07-20T03:21:39;7.03;;;3.63;;
24617;SDS011;12762;51.730;5.356;2023-07-20T03:24:10;8.27;;;4.60;;
24617;SDS011;12762;51.730;5.356;2023-07-20T03:26:36;5.40;;;4.03;;
24617;SDS011;12762;51.730;5.356;2023-07-20T03:29:04;4.37;;;3.10;;
24617;SDS011;12762;51.730;5.356;2023-07-20T03:31:31;4.90;;;3.17;;
24617;SDS011;12762;51.730;5.356;2023-07-20T03:33:59;5.33;;;3.10;;
24617;SDS011;12762;51.730;5.356;2023-07-20T03:36:25;5.70;;;3.80;;
24617;SDS011;12762;51.730;5.356;2023-07-20T03:38:52;6.60;;;3.90;;
24617;SDS011;12762;51.730;5.356;2023-07-20T03:41:19;5.80;;;3.53;;
24617;SDS011;12762;51.730;5.356;2023-07-20T03:43:47;6.00;;;3.57;;
24617;SDS011;12762;51.730;5.356;2023-07-20T03:46:15;5.70;;;3.57;;
24617;SDS011;12762;51.730;5.356;2023-07-20T03:48:42;6.93;;;4.23;;
24617;SDS011;12762;51.730;5.356;2023-07-20T03:51:09;6.13;;;4.53;;
24617;SDS011;12762;51.730;5.356;2023-07-20T03:53:36;5.63;;;4.67;;
24617;SDS011;12762;51.730;5.356;2023-07-20T03:56:03;6.67;;;4.13;;
24617;SDS011;12762;51.730;5.356;2023-07-20T03:58:30;6.90;;;5.50;;
24617;SDS011;12762;51.730;5.356;2023-07-20T04:00:57;6.93;;;5.63;;
24617;SDS011;12762;51.730;5.356;2023-07-20T04:03:24;7.90;;;5.50;;
24617;SDS011;12762;51.730;5.356;2023-07-20T04:05:53;8.37;;;5.40;;
24617;SDS011;12762;51.730;5.356;2023-07-20T04:08:23;8.03;;;5.70;;
24617;SDS011;12762;51.730;5.356;2023-07-20T04:10:51;8.80;;;5.73;;
24617;SDS011;12762;51.730;5.356;2023-07-20T04:13:18;8.83;;;5.43;;
24617;SDS011;12762;51.730;5.356;2023-07-20T04:15:44;8.00;;;4.93;;
24617;SDS011;12762;51.730;5.356;2023-07-20T04:18:11;6.90;;;5.13;;
24617;SDS011;12762;51.730;5.356;2023-07-20T04:20:38;8.23;;;6.30;;
24617;SDS011;12762;51.730;5.356;2023-07-20T04:23:05;11.50;;;7.83;;
24617;SDS011;12762;51.730;5.356;2023-07-20T04:25:32;10.10;;;7.40;;
24617;SDS011;12762;51.730;5.356;2023-07-20T04:28:06;12.50;;;8.57;;
24617;SDS011;12762;51.730;5.356;2023-07-20T04:30:37;14.37;;;9.13;;
24617;SDS011;12762;51.730;5.356;2023-07-20T04:33:06;12.27;;;7.60;;
24617;SDS011;12762;51.730;5.356;2023-07-20T04:35:52;12.67;;;9.47;;
24617;SDS011;12762;51.730;5.356;2023-07-20T04:38:20;12.97;;;8.90;;
24617;SDS011;12762;51.730;5.356;2023-07-20T04:40:49;13.30;;;9.20;;
24617;SDS011;12762;51.730;5.356;2023-07-20T04:43:16;11.83;;;7.87;;
24617;SDS011;12762;51.730;5.356;2023-07-20T04:45:44;12.20;;;8.60;;
24617;SDS011;12762;51.730;5.356;2023-07-20T04:48:11;10.97;;;8.23;;
24617;SDS011;12762;51.730;5.356;2023-07-20T04:50:43;13.10;;;8.63;;
24617;SDS011;12762;51.730;5.356;2023-07-20T04:53:11;15.47;;;8.53;;
24617;SDS011;12762;51.730;5.356;2023-07-20T04:55:39;14.13;;;9.67;;
24617;SDS011;12762;51.730;5.356;2023-07-20T04:58:16;16.13;;;10.00;;
24617;SDS011;12762;51.730;5.356;2023-07-20T05:00:44;17.33;;;10.90;;
24617;SDS011;12762;51.730;5.356;2023-07-20T05:03:11;12.03;;;8.43;;
24617;SDS011;12762;51.730;5.356;2023-07-20T05:05:38;14.37;;;10.70;;
24617;SDS011;12762;51.730;5.356;2023-07-20T05:08:05;18.60;;;10.50;;
24617;SDS011;12762;51.730;5.356;2023-07-20T05:10:31;17.00;;;11.40;;
24617;SDS011;12762;51.730;5.356;2023-07-20T05:12:59;13.00;;;8.27;;
24617;SDS011;12762;51.730;5.356;2023-07-20T05:15:26;14.10;;;8.70;;
24617;SDS011;12762;51.730;5.356;2023-07-20T05:17:53;16.80;;;11.10;;
24617;SDS011;12762;51.730;5.356;2023-07-20T05:20:20;16.47;;;11.57;;
24617;SDS011;12762;51.730;5.356;2023-07-20T05:22:47;15.10;;;9.97;;
24617;SDS011;12762;51.730;5.356;2023-07-20T05:25:14;11.93;;;9.00;;
24617;SDS011;12762;51.730;5.356;2023-07-20T05:27:44;12.87;;;8.97;;
24617;SDS011;12762;51.730;5.356;2023-07-20T05:30:11;12.37;;;8.43;;
24617;SDS011;12762;51.730;5.356;2023-07-20T05:32:38;12.37;;;8.67;;
24617;SDS011;12762;51.730;5.356;2023-07-20T05:35:05;16.00;;;10.60;;
24617;SDS011;12762;51.730;5.356;2023-07-20T05:37:33;14.73;;;10.37;;
24617;SDS011;12762;51.730;5.356;2023-07-20T05:40:00;14.50;;;10.67;;
24617;SDS011;12762;51.730;5.356;2023-07-20T05:42:29;15.20;;;10.03;;
24617;SDS011;12762;51.730;5.356;2023-07-20T05:44:56;15.90;;;9.80;;
24617;SDS011;12762;51.730;5.356;2023-07-20T05:47:23;14.17;;;9.57;;
24617;SDS011;12762;51.730;5.356;2023-07-20T05:49:50;17.37;;;9.77;;
24617;SDS011;12762;51.730;5.356;2023-07-20T05:52:17;14.13;;;9.40;;
24617;SDS011;12762;51.730;5.356;2023-07-20T05:54:44;11.97;;;9.17;;
24617;SDS011;12762;51.730;5.356;2023-07-20T05:57:11;14.40;;;9.00;;
24617;SDS011;12762;51.730;5.356;2023-07-20T05:59:44;12.03;;;8.57;;
24617;SDS011;12762;51.730;5.356;2023-07-20T06:02:11;12.83;;;7.23;;
24617;SDS011;12762;51.730;5.356;2023-07-20T06:04:38;12.40;;;7.27;;
24617;SDS011;12762;51.730;5.356;2023-07-20T06:07:05;10.67;;;7.07;;
24617;SDS011;12762;51.730;5.356;2023-07-20T06:09:34;9.30;;;5.97;;
24617;SDS011;12762;51.730;5.356;2023-07-20T06:12:03;9.77;;;6.70;;
24617;SDS011;12762;51.730;5.356;2023-07-20T06:14:30;7.63;;;4.47;;
24617;SDS011;12762;51.730;5.356;2023-07-20T06:16:57;9.23;;;6.10;;
24617;SDS011;12762;51.730;5.356;2023-07-20T06:19:24;7.00;;;4.30;;
24617;SDS011;12762;51.730;5.356;2023-07-20T06:21:50;8.00;;;4.30;;
24617;SDS011;12762;51.730;5.356;2023-07-20T06:24:17;7.07;;;5.40;;
24617;SDS011;12762;51.730;5.356;2023-07-20T06:26:44;6.90;;;4.50;;
24617;SDS011;12762;51.730;5.356;2023-07-20T06:29:11;7.47;;;5.77;;
24617;SDS011;12762;51.730;5.356;2023-07-20T06:31:38;8.87;;;5.57;;
24617;SDS011;12762;51.730;5.356;2023-07-20T06:34:05;9.50;;;5.10;;
24617;SDS011;12762;51.730;5.356;2023-07-20T06:36:31;6.93;;;5.40;;
24617;SDS011;12762;51.730;5.356;2023-07-20T06:38:58;7.77;;;5.20;;
24617;SDS011;12762;51.730;5.356;2023-07-20T06:41:28;7.43;;;5.30;;
24617;SDS011;12762;51.730;5.356;2023-07-20T06:43:58;5.97;;;4.53;;
24617;SDS011;12762;51.730;5.356;2023-07-20T06:46:25;6.47;;;4.57;;
24617;SDS011;12762;51.730;5.356;2023-07-20T06:48:53;7.27;;;4.60;;
24617;SDS011;12762;51.730;5.356;2023-07-20T06:51:23;6.57;;;4.63;;
24617;SDS011;12762;51.730;5.356;2023-07-20T06:53:51;7.70;;;4.57;;
24617;SDS011;12762;51.730;5.356;2023-07-20T06:56:18;6.50;;;4.50;;
24617;SDS011;12762;51.730;5.356;2023-07-20T06:58:49;6.00;;;3.57;;
24617;SDS011;12762;51.730;5.356;2023-07-20T07:01:16;4.73;;;3.07;;
24617;SDS011;12762;51.730;5.356;2023-07-20T07:03:43;6.80;;;3.40;;
24617;SDS011;12762;51.730;5.356;2023-07-20T07:06:10;4.63;;;3.47;;
24617;SDS011;12762;51.730;5.356;2023-07-20T07:08:37;4.53;;;2.80;;
24617;SDS011;12762;51.730;5.356;2023-07-20T07:11:04;4.23;;;2.47;;
24617;SDS011;12762;51.730;5.356;2023-07-20T07:13:31;4.97;;;2.80;;
24617;SDS011;12762;51.730;5.356;2023-07-20T07:15:58;4.77;;;2.20;;
24617;SDS011;12762;51.730;5.356;2023-07-20T07:18:25;3.50;;;2.23;;
24617;SDS011;12762;51.730;5.356;2023-07-20T07:20:53;3.80;;;2.27;;
24617;SDS011;12762;51.730;5.356;2023-07-20T07:23:20;3.00;;;2.10;;
24617;SDS011;12762;51.730;5.356;2023-07-20T07:25:47;6.03;;;2.33;;
24617;SDS011;12762;51.730;5.356;2023-07-20T07:28:14;4.37;;;2.40;;
24617;SDS011;12762;51.730;5.356;2023-07-20T07:30:41;5.37;;;2.57;;
24617;SDS011;12762;51.730;5.356;2023-07-20T07:33:08;4.70;;;2.20;;
24617;SDS011;12762;51.730;5.356;2023-07-20T07:35:36;2.23;;;1.30;;
24617;SDS011;12762;51.730;5.356;2023-07-20T07:38:03;3.03;;;1.13;;
24617;SDS011;12762;51.730;5.356;2023-07-20T07:40:51;2.00;;;0.90;;
24617;SDS011;12762;51.730;5.356;2023-07-20T07:43:18;1.80;;;0.40;;
24617;SDS011;12762;51.730;5.356;2023-07-20T07:45:45;1.43;;;0.80;;
24617;SDS011;12762;51.730;5.356;2023-07-20T07:48:11;3.73;;;1.40;;
24617;SDS011;12762;51.730;5.356;2023-07-20T07:50:40;4.40;;;1.27;;
24617;SDS011;12762;51.730;5.356;2023-07-20T07:53:08;1.60;;;0.90;;
24617;SDS011;12762;51.730;5.356;2023-07-20T07:55:35;3.40;;;0.90;;
24617;SDS011;12762;51.730;5.356;2023-07-20T07:58:02;2.90;;;0.90;;
24617;SDS011;12762;51.730;5.356;2023-07-20T08:00:29;1.23;;;0.60;;
24617;SDS011;12762;51.730;5.356;2023-07-20T08:02:56;4.00;;;0.80;;
24617;SDS011;12762;51.730;5.356;2023-07-20T08:05:23;2.10;;;0.73;;
24617;SDS011;12762;51.730;5.356;2023-07-20T08:07:51;1.30;;;0.67;;
24617;SDS011;12762;51.730;5.356;2023-07-20T08:10:18;1.20;;;0.80;;
24617;SDS011;12762;51.730;5.356;2023-07-20T08:12:45;2.90;;;0.90;;
24617;SDS011;12762;51.730;5.356;2023-07-20T08:15:12;7.50;;;1.50;;
24617;SDS011;12762;51.730;5.356;2023-07-20T08:17:41;1.90;;;0.70;;
24617;SDS011;12762;51.730;5.356;2023-07-20T08:20:12;1.00;;;0.70;;
24617;SDS011;12762;51.730;5.356;2023-07-20T08:22:39;1.50;;;0.77;;
24617;SDS011;12762;51.730;5.356;2023-07-20T08:25:06;1.67;;;0.70;;
24617;SDS011;12762;51.730;5.356;2023-07-20T08:27:34;1.08;;;0.60;;
24617;SDS011;12762;51.730;5.356;2023-07-20T08:30:02;2.05;;;0.70;;
24617;SDS011;12762;51.730;5.356;2023-07-20T08:32:30;1.00;;;0.90;;
24617;SDS011;12762;51.730;5.356;2023-07-20T08:34:57;1.35;;;0.93;;
24617;SDS011;12762;51.730;5.356;2023-07-20T08:37:24;2.20;;;0.75;;
24617;SDS011;12762;51.730;5.356;2023-07-20T08:39:50;2.53;;;1.00;;
24617;SDS011;12762;51.730;5.356;2023-07-20T08:42:17;2.50;;;0.90;;
24617;SDS011;12762;51.730;5.356;2023-07-20T08:44:44;2.47;;;1.20;;
24617;SDS011;12762;51.730;5.356;2023-07-20T08:47:14;1.13;;;0.80;;
24617;SDS011;12762;51.730;5.356;2023-07-20T08:49:42;0.95;;;0.75;;
24617;SDS011;12762;51.730;5.356;2023-07-20T08:52:14;1.90;;;0.90;;
24617;SDS011;12762;51.730;5.356;2023-07-20T08:54:41;1.88;;;0.82;;
24617;SDS011;12762;51.730;5.356;2023-07-20T08:57:08;1.80;;;0.88;;
24617;SDS011;12762;51.730;5.356;2023-07-20T08:59:40;1.45;;;0.80;;
24617;SDS011;12762;51.730;5.356;2023-07-20T09:02:07;0.80;;;0.60;;
24617;SDS011;12762;51.730;5.356;2023-07-20T09:04:44;1.13;;;0.50;;
24617;SDS011;12762;51.730;5.356;2023-07-20T09:07:11;0.88;;;0.40;;
24617;SDS011;12762;51.730;5.356;2023-07-20T09:09:43;1.27;;;0.50;;
24617;SDS011;12762;51.730;5.356;2023-07-20T09:12:13;1.10;;;0.60;;
24617;SDS011;12762;51.730;5.356;2023-07-20T09:14:43;1.67;;;0.50;;
24617;SDS011;12762;51.730;5.356;2023-07-20T09:17:13;2.78;;;0.70;;
24617;SDS011;12762;51.730;5.356;2023-07-20T09:19:46;1.65;;;0.85;;
24617;SDS011;12762;51.730;5.356;2023-07-20T09:22:14;1.52;;;0.57;;
24617;SDS011;12762;51.730;5.356;2023-07-20T09:24:41;0.68;;;0.50;;
24617;SDS011;12762;51.730;5.356;2023-07-20T09:27:10;1.95;;;0.68;;
24617;SDS011;12762;51.730;5.356;2023-07-20T09:29:52;2.20;;;0.60;;
24617;SDS011;12762;51.730;5.356;2023-07-20T09:32:19;1.33;;;0.57;;
24617;SDS011;12762;51.730;5.356;2023-07-20T09:34:51;1.40;;;0.70;;
24617;SDS011;12762;51.730;5.356;2023-07-20T09:37:47;0.77;;;0.60;;
24617;SDS011;12762;51.730;5.356;2023-07-20T09:40:40;1.85;;;0.68;;
24617;SDS011;12762;51.730;5.356;2023-07-20T09:43:11;2.35;;;0.82;;
24617;SDS011;12762;51.730;5.356;2023-07-20T09:45:41;2.15;;;0.70;;
24617;SDS011;12762;51.730;5.356;2023-07-20T09:48:12;0.75;;;0.50;;
24617;SDS011;12762;51.730;5.356;2023-07-20T09:50:51;2.13;;;0.85;;
24617;SDS011;12762;51.730;5.356;2023-07-20T09:53:19;3.17;;;0.90;;
24617;SDS011;12762;51.730;5.356;2023-07-20T09:55:47;1.38;;;0.60;;
24617;SDS011;12762;51.730;5.356;2023-07-20T09:58:15;2.75;;;1.00;;
24617;SDS011;12762;51.730;5.356;2023-07-20T10:00:43;1.50;;;1.20;;
24617;SDS011;12762;51.730;5.356;2023-07-20T10:03:18;1.13;;;0.80;;
24617;SDS011;12762;51.730;5.356;2023-07-20T10:05:47;1.85;;;1.00;;
24617;SDS011;12762;51.730;5.356;2023-07-20T10:08:18;1.63;;;1.00;;
24617;SDS011;12762;51.730;5.356;2023-07-20T10:10:49;0.98;;;0.80;;
24617;SDS011;12762;51.730;5.356;2023-07-20T10:13:17;1.95;;;1.00;;
24617;SDS011;12762;51.730;5.356;2023-07-20T10:16:01;1.85;;;1.08;;
24617;SDS011;12762;51.730;5.356;2023-07-20T10:18:35;1.42;;;1.17;;
24617;SDS011;12762;51.730;5.356;2023-07-20T10:21:14;3.58;;;1.05;;
24617;SDS011;12762;51.730;5.356;2023-07-20T10:23:47;2.30;;;1.38;;
24617;SDS011;12762;51.730;5.356;2023-07-20T10:26:14;2.90;;;1.77;;
24617;SDS011;12762;51.730;5.356;2023-07-20T10:28:41;2.53;;;1.50;;
24617;SDS011;12762;51.730;5.356;2023-07-20T10:31:11;1.98;;;1.40;;
24617;SDS011;12762;51.730;5.356;2023-07-20T10:33:39;1.42;;;1.23;;
24617;SDS011;12762;51.730;5.356;2023-07-20T10:36:07;2.90;;;1.10;;
24617;SDS011;12762;51.730;5.356;2023-07-20T10:38:41;4.63;;;1.60;;
24617;SDS011;12762;51.730;5.356;2023-07-20T10:41:29;1.50;;;1.25;;
24617;SDS011;12762;51.730;5.356;2023-07-20T10:44:09;2.00;;;1.60;;
24617;SDS011;12762;51.730;5.356;2023-07-20T10:49:05;2.03;;;1.40;;
24617;SDS011;12762;51.730;5.356;2023-07-20T10:51:43;1.48;;;1.30;;
24617;SDS011;12762;51.730;5.356;2023-07-20T10:56:48;1.60;;;0.90;;
24617;SDS011;12762;51.730;5.356;2023-07-20T10:59:20;1.20;;;0.75;;
24617;SDS011;12762;51.730;5.356;2023-07-20T11:02:07;1.95;;;0.90;;
24617;SDS011;12762;51.730;5.356;2023-07-20T11:04:38;1.95;;;1.00;;
24617;SDS011;12762;51.730;5.356;2023-07-20T11:07:06;1.42;;;0.60;;
24617;SDS011;12762;51.730;5.356;2023-07-20T11:09:34;1.85;;;0.80;;
24617;SDS011;12762;51.730;5.356;2023-07-20T11:12:09;1.52;;;0.80;;
24617;SDS011;12762;51.730;5.356;2023-07-20T11:14:41;1.10;;;0.80;;
24617;SDS011;12762;51.730;5.356;2023-07-20T11:17:14;1.20;;;0.90;;
24617;SDS011;12762;51.730;5.356;2023-07-20T11:19:44;1.17;;;0.90;;
24617;SDS011;12762;51.730;5.356;2023-07-20T11:22:17;2.47;;;1.17;;
24617;SDS011;12762;51.730;5.356;2023-07-20T11:24:45;1.15;;;1.02;;
24617;SDS011;12762;51.730;5.356;2023-07-20T11:27:12;1.75;;;0.90;;
24617;SDS011;12762;51.730;5.356;2023-07-20T11:29:38;1.55;;;1.20;;
24617;SDS011;12762;51.730;5.356;2023-07-20T11:32:21;1.83;;;1.20;;
24617;SDS011;12762;51.730;5.356;2023-07-20T11:35:00;2.08;;;0.90;;
24617;SDS011;12762;51.730;5.356;2023-07-20T11:37:27;1.55;;;1.00;;
24617;SDS011;12762;51.730;5.356;2023-07-20T11:39:58;1.55;;;1.02;;
24617;SDS011;12762;51.730;5.356;2023-07-20T11:42:25;1.58;;;1.10;;
24617;SDS011;12762;51.730;5.356;2023-07-20T11:44:55;1.20;;;0.90;;
24617;SDS011;12762;51.730;5.356;2023-07-20T11:47:23;1.30;;;0.98;;
24617;SDS011;12762;51.730;5.356;2023-07-20T11:49:55;2.05;;;0.95;;
24617;SDS011;12762;51.730;5.356;2023-07-20T11:52:29;3.05;;;1.05;;
24617;SDS011;12762;51.730;5.356;2023-07-20T11:54:57;4.72;;;1.27;;
24617;SDS011;12762;51.730;5.356;2023-07-20T11:57:24;1.67;;;1.00;;
24617;SDS011;12762;51.730;5.356;2023-07-20T11:59:57;0.80;;;0.60;;
24617;SDS011;12762;51.730;5.356;2023-07-20T12:02:37;0.65;;;0.65;;
24617;SDS011;12762;51.730;5.356;2023-07-20T12:05:07;1.63;;;0.80;;
24617;SDS011;12762;51.730;5.356;2023-07-20T12:07:35;1.35;;;0.63;;
24617;SDS011;12762;51.730;5.356;2023-07-20T12:10:10;2.65;;;0.85;;
24617;SDS011;12762;51.730;5.356;2023-07-20T12:12:39;2.72;;;1.10;;
24617;SDS011;12762;51.730;5.356;2023-07-20T12:15:13;2.20;;;0.95;;
24617;SDS011;12762;51.730;5.356;2023-07-20T12:17:44;1.33;;;0.90;;
24617;SDS011;12762;51.730;5.356;2023-07-20T12:20:12;1.10;;;0.80;;
24617;SDS011;12762;51.730;5.356;2023-07-20T12:22:39;1.60;;;1.10;;
24617;SDS011;12762;51.730;5.356;2023-07-20T12:25:07;1.42;;;1.30;;
24617;SDS011;12762;51.730;5.356;2023-07-20T12:27:37;2.22;;;1.17;;
24617;SDS011;12762;51.730;5.356;2023-07-20T12:30:05;1.80;;;1.27;;
24617;SDS011;12762;51.730;5.356;2023-07-20T12:32:36;1.48;;;1.10;;
24617;SDS011;12762;51.730;5.356;2023-07-20T12:35:03;1.75;;;1.10;;
24617;SDS011;12762;51.730;5.356;2023-07-20T12:37:30;1.20;;;1.10;;
24617;SDS011;12762;51.730;5.356;2023-07-20T12:39:58;1.83;;;1.38;;
24617;SDS011;12762;51.730;5.356;2023-07-20T12:42:25;3.05;;;1.10;;
24617;SDS011;12762;51.730;5.356;2023-07-20T12:44:52;2.88;;;1.23;;
24617;SDS011;12762;51.730;5.356;2023-07-20T12:47:18;4.07;;;1.60;;
24617;SDS011;12762;51.730;5.356;2023-07-20T12:49:45;1.58;;;1.15;;
24617;SDS011;12762;51.730;5.356;2023-07-20T12:52:15;3.90;;;1.10;;
24617;SDS011;12762;51.730;5.356;2023-07-20T12:54:42;1.92;;;1.20;;
24617;SDS011;12762;51.730;5.356;2023-07-20T12:57:10;1.38;;;0.95;;
24617;SDS011;12762;51.730;5.356;2023-07-20T12:59:38;1.83;;;1.10;;
24617;SDS011;12762;51.730;5.356;2023-07-20T13:02:05;2.63;;;1.30;;
24617;SDS011;12762;51.730;5.356;2023-07-20T13:04:32;3.40;;;1.45;;
24617;SDS011;12762;51.730;5.356;2023-07-20T13:06:59;1.73;;;1.40;;
24617;SDS011;12762;51.730;5.356;2023-07-20T13:09:46;4.10;;;1.38;;
24617;SDS011;12762;51.730;5.356;2023-07-20T13:12:13;2.97;;;1.33;;
24617;SDS011;12762;51.730;5.356;2023-07-20T13:14:40;2.83;;;1.40;;
24617;SDS011;12762;51.730;5.356;2023-07-20T13:17:06;1.95;;;1.20;;
24617;SDS011;12762;51.730;5.356;2023-07-20T13:19:34;1.80;;;1.02;;
24617;SDS011;12762;51.730;5.356;2023-07-20T13:22:01;2.35;;;1.33;;
24617;SDS011;12762;51.730;5.356;2023-07-20T13:24:28;1.85;;;1.17;;
24617;SDS011;12762;51.730;5.356;2023-07-20T13:26:55;2.33;;;1.60;;
24617;SDS011;12762;51.730;5.356;2023-07-20T13:29:21;2.25;;;1.40;;
24617;SDS011;12762;51.730;5.356;2023-07-20T13:31:49;1.83;;;1.30;;
24617;SDS011;12762;51.730;5.356;2023-07-20T13:34:17;2.17;;;1.52;;
24617;SDS011;12762;51.730;5.356;2023-07-20T13:36:47;1.50;;;0.88;;
24617;SDS011;12762;51.730;5.356;2023-07-20T13:39:17;4.80;;;1.00;;
24617;SDS011;12762;51.730;5.356;2023-07-20T13:41:44;2.00;;;1.00;;
24617;SDS011;12762;51.730;5.356;2023-07-20T13:44:13;2.70;;;1.00;;
24617;SDS011;12762;51.730;5.356;2023-07-20T13:46:47;2.13;;;1.05;;
24617;SDS011;12762;51.730;5.356;2023-07-20T13:49:15;1.80;;;1.20;;
24617;SDS011;12762;51.730;5.356;2023-07-20T13:51:49;2.40;;;0.98;;
24617;SDS011;12762;51.730;5.356;2023-07-20T13:54:36;1.20;;;1.00;;
24617;SDS011;12762;51.730;5.356;2023-07-20T13:57:05;1.25;;;0.88;;
24617;SDS011;12762;51.730;5.356;2023-07-20T13:59:32;1.30;;;1.15;;
24617;SDS011;12762;51.730;5.356;2023-07-20T14:01:59;1.85;;;1.10;;
24617;SDS011;12762;51.730;5.356;2023-07-20T14:04:29;2.63;;;1.52;;
24617;SDS011;12762;51.730;5.356;2023-07-20T14:06:56;2.45;;;1.50;;
24617;SDS011;12762;51.730;5.356;2023-07-20T14:09:23;2.08;;;1.35;;
24617;SDS011;12762;51.730;5.356;2023-07-20T14:11:52;1.80;;;1.10;;
24617;SDS011;12762;51.730;5.356;2023-07-20T14:14:22;1.77;;;0.98;;
24617;SDS011;12762;51.730;5.356;2023-07-20T14:16:49;1.52;;;1.08;;
24617;SDS011;12762;51.730;5.356;2023-07-20T14:19:16;2.10;;;1.15;;
24617;SDS011;12762;51.730;5.356;2023-07-20T14:21:43;1.30;;;1.13;;
24617;SDS011;12762;51.730;5.356;2023-07-20T14:24:11;2.03;;;1.15;;
24617;SDS011;12762;51.730;5.356;2023-07-20T14:26:38;2.28;;;1.58;;
24617;SDS011;12762;51.730;5.356;2023-07-20T14:29:09;2.63;;;1.42;;
24617;SDS011;12762;51.730;5.356;2023-07-20T14:31:38;2.83;;;1.27;;
24617;SDS011;12762;51.730;5.356;2023-07-20T14:34:05;2.28;;;1.40;;
24617;SDS011;12762;51.730;5.356;2023-07-20T14:36:32;3.00;;;1.25;;
24617;SDS011;12762;51.730;5.356;2023-07-20T14:39:08;2.00;;;1.20;;
24617;SDS011;12762;51.730;5.356;2023-07-20T14:41:34;2.00;;;1.27;;
24617;SDS011;12762;51.730;5.356;2023-07-20T14:44:01;3.65;;;1.60;;
24617;SDS011;12762;51.730;5.356;2023-07-20T14:46:28;3.47;;;1.50;;
24617;SDS011;12762;51.730;5.356;2023-07-20T14:48:56;1.67;;;1.20;;
24617;SDS011;12762;51.730;5.356;2023-07-20T14:51:22;2.20;;;1.70;;
24617;SDS011;12762;51.730;5.356;2023-07-20T14:54:03;5.00;;;1.48;;
24617;SDS011;12762;51.730;5.356;2023-07-20T14:56:30;1.48;;;1.10;;
24617;SDS011;12762;51.730;5.356;2023-07-20T14:58:57;3.00;;;1.23;;
24617;SDS011;12762;51.730;5.356;2023-07-20T15:01:24;1.25;;;1.15;;
24617;SDS011;12762;51.730;5.356;2023-07-20T15:03:51;3.03;;;1.40;;
24617;SDS011;12762;51.730;5.356;2023-07-20T15:06:25;2.25;;;1.23;;
24617;SDS011;12762;51.730;5.356;2023-07-20T15:08:53;1.50;;;1.20;;
24617;SDS011;12762;51.730;5.356;2023-07-20T15:11:19;2.60;;;1.30;;
24617;SDS011;12762;51.730;5.356;2023-07-20T15:13:46;1.58;;;1.00;;
24617;SDS011;12762;51.730;5.356;2023-07-20T15:16:13;1.65;;;1.30;;